sensor_id;sensor_type;location;lat;lon;timestamp;temperature;humidity
46752;DHT22;32497;48.936;9.270;2022-12-29T00:04:44;8.30;73.10
46752;DHT22;32497;48.936;9.270;2022-12-29T00:09:45;8.30;73.30
46752;DHT22;32497;48.936;9.270;2022-12-29T00:14:46;8.30;73.10
46752;DHT22;32497;48.936;9.270;2022-12-29T00:19:48;8.40;73.30
46752;DHT22;32497;48.936;9.270;2022-12-29T00:24:49;8.40;73.20
46752;DHT22;32497;48.936;9.270;2022-12-29T00:29:50;8.40;73.40
46752;DHT22;32497;48.936;9.270;2022-12-29T00:34:53;8.40;72.90
46752;DHT22;32497;48.936;9.270;2022-12-29T00:39:54;8.50;72.80
46752;DHT22;32497;48.936;9.270;2022-12-29T00:44:55;8.60;72.50
46752;DHT22;32497;48.936;9.270;2022-12-29T00:49:57;8.70;71.70
46752;DHT22;32497;48.936;9.270;2022-12-29T00:54:58;8.80;71.60
46752;DHT22;32497;48.936;9.270;2022-12-29T01:00:00;8.80;71.50
46752;DHT22;32497;48.936;9.270;2022-12-29T01:05:02;8.90;71.60
46752;DHT22;32497;48.936;9.270;2022-12-29T01:10:04;8.80;71.40
46752;DHT22;32497;48.936;9.270;2022-12-29T01:15:06;8.90;71.10
46752;DHT22;32497;48.936;9.270;2022-12-29T01:20:09;9.00;70.90
46752;DHT22;32497;48.936;9.270;2022-12-29T01:25:10;9.00;70.70
46752;DHT22;32497;48.936;9.270;2022-12-29T01:30:13;9.10;70.30
46752;DHT22;32497;48.936;9.270;2022-12-29T01:35:15;9.10;69.90
46752;DHT22;32497;48.936;9.270;2022-12-29T01:40:16;9.30;70.00
46752;DHT22;32497;48.936;9.270;2022-12-29T01:45:19;9.30;70.10
46752;DHT22;32497;48.936;9.270;2022-12-29T01:50:26;9.30;70.40
46752;DHT22;32497;48.936;9.270;2022-12-29T01:55:32;9.30;70.20
46752;DHT22;32497;48.936;9.270;2022-12-29T02:00:34;9.40;69.60
46752;DHT22;32497;48.936;9.270;2022-12-29T02:05:39;9.40;69.40
46752;DHT22;32497;48.936;9.270;2022-12-29T02:10:42;9.30;69.50
46752;DHT22;32497;48.936;9.270;2022-12-29T02:15:51;9.30;69.90
46752;DHT22;32497;48.936;9.270;2022-12-29T02:26:48;9.20;70.50
46752;DHT22;32497;48.936;9.270;2022-12-29T02:31:55;9.20;70.90
46752;DHT22;32497;48.936;9.270;2022-12-29T02:37:04;9.20;70.70
46752;DHT22;32497;48.936;9.270;2022-12-29T02:42:13;9.30;70.30
46752;DHT22;32497;48.936;9.270;2022-12-29T02:47:23;9.40;70.30
46752;DHT22;32497;48.936;9.270;2022-12-29T02:52:33;9.50;69.90
46752;DHT22;32497;48.936;9.270;2022-12-29T02:57:36;9.50;69.80
46752;DHT22;32497;48.936;9.270;2022-12-29T03:03:00;9.60;69.70
46752;DHT22;32497;48.936;9.270;2022-12-29T03:08:13;9.70;68.90
46752;DHT22;32497;48.936;9.270;2022-12-29T03:13:25;9.70;68.80
46752;DHT22;32497;48.936;9.270;2022-12-29T03:18:39;9.90;68.70
46752;DHT22;32497;48.936;9.270;2022-12-29T03:23:43;9.90;67.90
46752;DHT22;32497;48.936;9.270;2022-12-29T03:28:48;9.90;67.50
46752;DHT22;32497;48.936;9.270;2022-12-29T03:33:57;10.00;68.20
46752;DHT22;32497;48.936;9.270;2022-12-29T03:39:02;10.00;67.80
46752;DHT22;32497;48.936;9.270;2022-12-29T03:44:05;10.00;68.40
46752;DHT22;32497;48.936;9.270;2022-12-29T03:49:08;10.00;68.40
46752;DHT22;32497;48.936;9.270;2022-12-29T03:54:09;10.00;68.60
46752;DHT22;32497;48.936;9.270;2022-12-29T03:59:10;9.90;68.60
46752;DHT22;32497;48.936;9.270;2022-12-29T04:04:15;10.00;68.50
46752;DHT22;32497;48.936;9.270;2022-12-29T04:09:17;10.00;68.60
46752;DHT22;32497;48.936;9.270;2022-12-29T04:14:20;10.10;68.20
46752;DHT22;32497;48.936;9.270;2022-12-29T04:19:22;10.30;67.10
46752;DHT22;32497;48.936;9.270;2022-12-29T04:24:24;10.50;67.00
46752;DHT22;32497;48.936;9.270;2022-12-29T04:29:25;10.50;66.80
46752;DHT22;32497;48.936;9.270;2022-12-29T04:34:54;10.60;66.30
46752;DHT22;32497;48.936;9.270;2022-12-29T04:39:56;10.60;66.70
46752;DHT22;32497;48.936;9.270;2022-12-29T04:44:57;10.60;66.60
46752;DHT22;32497;48.936;9.270;2022-12-29T04:50:24;10.40;67.80
46752;DHT22;32497;48.936;9.270;2022-12-29T04:55:29;10.10;68.60
46752;DHT22;32497;48.936;9.270;2022-12-29T05:00:30;10.10;69.00
46752;DHT22;32497;48.936;9.270;2022-12-29T05:05:33;10.60;67.60
46752;DHT22;32497;48.936;9.270;2022-12-29T05:10:35;10.90;66.70
46752;DHT22;32497;48.936;9.270;2022-12-29T05:15:47;10.80;67.40
46752;DHT22;32497;48.936;9.270;2022-12-29T05:20:50;10.70;67.80
46752;DHT22;32497;48.936;9.270;2022-12-29T05:25:53;10.60;68.00
46752;DHT22;32497;48.936;9.270;2022-12-29T05:31:23;10.60;68.70
46752;DHT22;32497;48.936;9.270;2022-12-29T05:36:26;10.70;68.70
46752;DHT22;32497;48.936;9.270;2022-12-29T05:41:31;10.90;68.40
46752;DHT22;32497;48.936;9.270;2022-12-29T05:46:47;11.00;68.50
46752;DHT22;32497;48.936;9.270;2022-12-29T05:52:08;11.00;68.60
46752;DHT22;32497;48.936;9.270;2022-12-29T05:57:10;11.00;68.80
46752;DHT22;32497;48.936;9.270;2022-12-29T06:02:12;11.20;68.30
46752;DHT22;32497;48.936;9.270;2022-12-29T06:07:16;11.20;68.10
46752;DHT22;32497;48.936;9.270;2022-12-29T06:12:20;11.30;67.60
46752;DHT22;32497;48.936;9.270;2022-12-29T06:17:24;11.30;67.90
46752;DHT22;32497;48.936;9.270;2022-12-29T06:22:27;11.30;67.60
46752;DHT22;32497;48.936;9.270;2022-12-29T06:27:28;11.20;67.90
46752;DHT22;32497;48.936;9.270;2022-12-29T06:32:29;11.10;68.40
46752;DHT22;32497;48.936;9.270;2022-12-29T06:37:37;11.10;68.40
46752;DHT22;32497;48.936;9.270;2022-12-29T06:42:38;11.10;68.10
46752;DHT22;32497;48.936;9.270;2022-12-29T06:47:57;11.00;68.20
46752;DHT22;32497;48.936;9.270;2022-12-29T06:52:59;11.10;68.50
46752;DHT22;32497;48.936;9.270;2022-12-29T06:58:01;11.10;68.40
46752;DHT22;32497;48.936;9.270;2022-12-29T07:03:02;11.00;68.50
46752;DHT22;32497;48.936;9.270;2022-12-29T07:08:04;11.00;68.40
46752;DHT22;32497;48.936;9.270;2022-12-29T07:13:05;10.90;68.80
46752;DHT22;32497;48.936;9.270;2022-12-29T07:18:07;10.60;69.50
46752;DHT22;32497;48.936;9.270;2022-12-29T07:23:09;10.60;69.80
46752;DHT22;32497;48.936;9.270;2022-12-29T07:28:10;10.30;70.50
46752;DHT22;32497;48.936;9.270;2022-12-29T07:33:11;10.10;71.10
46752;DHT22;32497;48.936;9.270;2022-12-29T07:38:13;10.00;71.20
46752;DHT22;32497;48.936;9.270;2022-12-29T07:43:14;10.00;71.20
46752;DHT22;32497;48.936;9.270;2022-12-29T07:48:25;10.00;71.00
46752;DHT22;32497;48.936;9.270;2022-12-29T07:53:28;9.90;71.00
46752;DHT22;32497;48.936;9.270;2022-12-29T07:58:30;9.80;71.80
46752;DHT22;32497;48.936;9.270;2022-12-29T08:03:31;9.70;71.70
46752;DHT22;32497;48.936;9.270;2022-12-29T08:08:33;9.60;72.70
46752;DHT22;32497;48.936;9.270;2022-12-29T08:13:34;9.60;71.70
46752;DHT22;32497;48.936;9.270;2022-12-29T08:18:35;9.70;71.30
46752;DHT22;32497;48.936;9.270;2022-12-29T08:23:38;9.90;70.90
46752;DHT22;32497;48.936;9.270;2022-12-29T08:28:39;10.10;70.30
46752;DHT22;32497;48.936;9.270;2022-12-29T08:33:40;10.40;69.10
46752;DHT22;32497;48.936;9.270;2022-12-29T08:38:42;10.60;68.50
46752;DHT22;32497;48.936;9.270;2022-12-29T08:43:45;10.70;68.10
46752;DHT22;32497;48.936;9.270;2022-12-29T08:48:46;10.80;67.60
46752;DHT22;32497;48.936;9.270;2022-12-29T08:53:49;10.90;67.50
46752;DHT22;32497;48.936;9.270;2022-12-29T08:58:50;10.90;67.80
46752;DHT22;32497;48.936;9.270;2022-12-29T09:03:53;11.00;67.40
46752;DHT22;32497;48.936;9.270;2022-12-29T09:08:56;11.00;67.50
46752;DHT22;32497;48.936;9.270;2022-12-29T09:13:58;11.10;67.20
46752;DHT22;32497;48.936;9.270;2022-12-29T09:18:59;11.30;66.00
46752;DHT22;32497;48.936;9.270;2022-12-29T09:24:01;11.60;65.80
46752;DHT22;32497;48.936;9.270;2022-12-29T09:29:02;11.60;65.60
46752;DHT22;32497;48.936;9.270;2022-12-29T09:34:03;11.80;65.70
46752;DHT22;32497;48.936;9.270;2022-12-29T09:39:06;11.90;64.80
46752;DHT22;32497;48.936;9.270;2022-12-29T09:44:14;12.10;64.80
46752;DHT22;32497;48.936;9.270;2022-12-29T09:49:24;12.10;64.70
46752;DHT22;32497;48.936;9.270;2022-12-29T09:54:37;12.20;64.60
46752;DHT22;32497;48.936;9.270;2022-12-29T09:59:42;12.30;64.00
46752;DHT22;32497;48.936;9.270;2022-12-29T10:04:44;12.60;63.20
46752;DHT22;32497;48.936;9.270;2022-12-29T10:09:53;12.50;63.30
46752;DHT22;32497;48.936;9.270;2022-12-29T10:15:03;12.30;64.00
46752;DHT22;32497;48.936;9.270;2022-12-29T10:20:15;12.20;66.80
46752;DHT22;32497;48.936;9.270;2022-12-29T10:25:25;11.90;67.30
46752;DHT22;32497;48.936;9.270;2022-12-29T10:30:27;12.10;67.30
46752;DHT22;32497;48.936;9.270;2022-12-29T10:35:32;11.70;72.40
46752;DHT22;32497;48.936;9.270;2022-12-29T10:40:42;11.60;73.40
46752;DHT22;32497;48.936;9.270;2022-12-29T10:45:44;11.90;70.10
46752;DHT22;32497;48.936;9.270;2022-12-29T10:50:45;12.70;65.90
46752;DHT22;32497;48.936;9.270;2022-12-29T10:55:49;12.90;65.30
46752;DHT22;32497;48.936;9.270;2022-12-29T11:00:52;12.80;65.60
46752;DHT22;32497;48.936;9.270;2022-12-29T11:05:57;12.90;65.30
46752;DHT22;32497;48.936;9.270;2022-12-29T11:11:01;13.20;65.80
46752;DHT22;32497;48.936;9.270;2022-12-29T11:16:02;13.50;64.00
46752;DHT22;32497;48.936;9.270;2022-12-29T11:21:05;13.30;64.70
46752;DHT22;32497;48.936;9.270;2022-12-29T11:26:20;13.50;64.00
46752;DHT22;32497;48.936;9.270;2022-12-29T11:31:22;13.50;62.80
46752;DHT22;32497;48.936;9.270;2022-12-29T11:36:24;13.40;61.80
46752;DHT22;32497;48.936;9.270;2022-12-29T11:41:28;13.30;63.10
46752;DHT22;32497;48.936;9.270;2022-12-29T11:46:32;13.20;63.50
46752;DHT22;32497;48.936;9.270;2022-12-29T11:51:44;13.20;63.80
46752;DHT22;32497;48.936;9.270;2022-12-29T11:56:48;13.10;63.10
46752;DHT22;32497;48.936;9.270;2022-12-29T12:01:50;13.20;62.10
46752;DHT22;32497;48.936;9.270;2022-12-29T12:06:57;13.30;62.10
46752;DHT22;32497;48.936;9.270;2022-12-29T12:12:03;13.20;62.40
46752;DHT22;32497;48.936;9.270;2022-12-29T12:17:10;13.10;62.30
46752;DHT22;32497;48.936;9.270;2022-12-29T12:22:16;13.00;62.90
46752;DHT22;32497;48.936;9.270;2022-12-29T12:27:24;12.60;65.00
46752;DHT22;32497;48.936;9.270;2022-12-29T12:32:33;12.70;64.70
46752;DHT22;32497;48.936;9.270;2022-12-29T12:37:48;12.80;63.50
46752;DHT22;32497;48.936;9.270;2022-12-29T12:43:04;12.90;64.00
46752;DHT22;32497;48.936;9.270;2022-12-29T12:48:19;12.80;65.50
46752;DHT22;32497;48.936;9.270;2022-12-29T12:53:40;12.80;65.40
46752;DHT22;32497;48.936;9.270;2022-12-29T12:58:52;12.90;65.70
46752;DHT22;32497;48.936;9.270;2022-12-29T13:04:08;13.00;66.20
46752;DHT22;32497;48.936;9.270;2022-12-29T13:09:25;13.00;66.30
46752;DHT22;32497;48.936;9.270;2022-12-29T13:14:40;13.10;67.50
46752;DHT22;32497;48.936;9.270;2022-12-29T13:19:47;13.00;67.80
46752;DHT22;32497;48.936;9.270;2022-12-29T13:25:02;13.10;67.60
46752;DHT22;32497;48.936;9.270;2022-12-29T13:30:12;13.10;68.30
46752;DHT22;32497;48.936;9.270;2022-12-29T13:35:35;13.00;69.10
46752;DHT22;32497;48.936;9.270;2022-12-29T13:40:41;12.80;70.20
46752;DHT22;32497;48.936;9.270;2022-12-29T13:45:53;12.70;69.90
46752;DHT22;32497;48.936;9.270;2022-12-29T13:50:58;12.60;71.20
46752;DHT22;32497;48.936;9.270;2022-12-29T13:56:05;12.40;71.30
46752;DHT22;32497;48.936;9.270;2022-12-29T14:01:14;12.30;72.10
46752;DHT22;32497;48.936;9.270;2022-12-29T14:06:20;12.20;72.70
46752;DHT22;32497;48.936;9.270;2022-12-29T14:11:24;12.20;72.80
46752;DHT22;32497;48.936;9.270;2022-12-29T14:16:33;12.10;73.80
46752;DHT22;32497;48.936;9.270;2022-12-29T14:21:35;11.80;74.90
46752;DHT22;32497;48.936;9.270;2022-12-29T14:26:36;11.80;74.10
46752;DHT22;32497;48.936;9.270;2022-12-29T14:31:38;12.00;72.90
46752;DHT22;32497;48.936;9.270;2022-12-29T14:36:41;12.00;74.10
46752;DHT22;32497;48.936;9.270;2022-12-29T14:41:45;11.80;73.70
46752;DHT22;32497;48.936;9.270;2022-12-29T14:46:57;11.90;73.80
46752;DHT22;32497;48.936;9.270;2022-12-29T14:52:12;11.80;74.40
46752;DHT22;32497;48.936;9.270;2022-12-29T14:57:25;11.70;74.10
46752;DHT22;32497;48.936;9.270;2022-12-29T15:02:33;11.80;74.10
46752;DHT22;32497;48.936;9.270;2022-12-29T15:07:35;11.80;73.60
46752;DHT22;32497;48.936;9.270;2022-12-29T15:12:39;11.80;74.00
46752;DHT22;32497;48.936;9.270;2022-12-29T15:17:43;11.80;74.10
46752;DHT22;32497;48.936;9.270;2022-12-29T15:22:44;11.80;73.60
46752;DHT22;32497;48.936;9.270;2022-12-29T15:27:49;11.60;74.10
46752;DHT22;32497;48.936;9.270;2022-12-29T15:32:52;11.60;74.20
46752;DHT22;32497;48.936;9.270;2022-12-29T15:37:53;11.60;74.40
46752;DHT22;32497;48.936;9.270;2022-12-29T15:43:10;11.60;77.30
46752;DHT22;32497;48.936;9.270;2022-12-29T15:48:18;10.00;86.70
46752;DHT22;32497;48.936;9.270;2022-12-29T15:53:22;9.50;90.20
46752;DHT22;32497;48.936;9.270;2022-12-29T15:58:26;9.40;91.00
46752;DHT22;32497;48.936;9.270;2022-12-29T16:03:32;9.20;91.20
46752;DHT22;32497;48.936;9.270;2022-12-29T16:08:35;9.20;91.60
46752;DHT22;32497;48.936;9.270;2022-12-29T16:13:40;9.20;91.80
46752;DHT22;32497;48.936;9.270;2022-12-29T16:18:44;9.20;91.70
46752;DHT22;32497;48.936;9.270;2022-12-29T16:23:48;9.20;91.90
46752;DHT22;32497;48.936;9.270;2022-12-29T16:28:54;9.10;91.60
46752;DHT22;32497;48.936;9.270;2022-12-29T16:33:57;9.10;90.90
46752;DHT22;32497;48.936;9.270;2022-12-29T16:39:19;8.90;91.30
46752;DHT22;32497;48.936;9.270;2022-12-29T16:44:23;8.90;91.30
46752;DHT22;32497;48.936;9.270;2022-12-29T16:49:27;9.00;91.70
46752;DHT22;32497;48.936;9.270;2022-12-29T16:54:32;9.00;91.70
46752;DHT22;32497;48.936;9.270;2022-12-29T16:59:36;9.00;91.80
46752;DHT22;32497;48.936;9.270;2022-12-29T17:04:39;9.00;91.80
46752;DHT22;32497;48.936;9.270;2022-12-29T17:09:40;9.10;91.90
46752;DHT22;32497;48.936;9.270;2022-12-29T17:14:43;9.00;92.00
46752;DHT22;32497;48.936;9.270;2022-12-29T17:19:49;8.90;91.80
46752;DHT22;32497;48.936;9.270;2022-12-29T17:24:51;8.80;91.40
46752;DHT22;32497;48.936;9.270;2022-12-29T17:29:55;8.80;91.30
46752;DHT22;32497;48.936;9.270;2022-12-29T17:34:58;8.90;91.90
46752;DHT22;32497;48.936;9.270;2022-12-29T17:39:59;8.90;91.90
46752;DHT22;32497;48.936;9.270;2022-12-29T17:45:00;8.90;91.90
46752;DHT22;32497;48.936;9.270;2022-12-29T17:50:04;8.80;91.80
46752;DHT22;32497;48.936;9.270;2022-12-29T17:55:06;8.80;91.70
46752;DHT22;32497;48.936;9.270;2022-12-29T18:00:13;8.70;91.70
46752;DHT22;32497;48.936;9.270;2022-12-29T18:05:20;8.70;91.70
46752;DHT22;32497;48.936;9.270;2022-12-29T18:10:23;8.70;91.70
46752;DHT22;32497;48.936;9.270;2022-12-29T18:15:26;8.60;91.80
46752;DHT22;32497;48.936;9.270;2022-12-29T18:20:29;8.60;91.70
46752;DHT22;32497;48.936;9.270;2022-12-29T18:25:38;8.60;91.10
46752;DHT22;32497;48.936;9.270;2022-12-29T18:30:40;8.60;91.20
46752;DHT22;32497;48.936;9.270;2022-12-29T18:35:46;8.50;90.90
46752;DHT22;32497;48.936;9.270;2022-12-29T18:40:48;8.40;91.40
46752;DHT22;32497;48.936;9.270;2022-12-29T18:45:49;8.40;91.50
46752;DHT22;32497;48.936;9.270;2022-12-29T18:50:52;8.40;91.40
46752;DHT22;32497;48.936;9.270;2022-12-29T18:55:53;8.30;91.20
46752;DHT22;32497;48.936;9.270;2022-12-29T19:00:54;8.30;91.20
46752;DHT22;32497;48.936;9.270;2022-12-29T19:05:57;8.20;90.90
46752;DHT22;32497;48.936;9.270;2022-12-29T19:10:58;8.20;91.30
46752;DHT22;32497;48.936;9.270;2022-12-29T19:15:59;8.20;91.60
46752;DHT22;32497;48.936;9.270;2022-12-29T19:21:02;8.20;91.70
46752;DHT22;32497;48.936;9.270;2022-12-29T19:26:03;8.20;91.50
46752;DHT22;32497;48.936;9.270;2022-12-29T19:31:04;8.30;91.50
46752;DHT22;32497;48.936;9.270;2022-12-29T19:36:08;8.20;91.60
46752;DHT22;32497;48.936;9.270;2022-12-29T19:41:09;8.20;91.40
46752;DHT22;32497;48.936;9.270;2022-12-29T19:46:15;8.10;91.20
46752;DHT22;32497;48.936;9.270;2022-12-29T19:51:18;8.10;91.30
46752;DHT22;32497;48.936;9.270;2022-12-29T19:56:19;8.00;91.20
46752;DHT22;32497;48.936;9.270;2022-12-29T20:01:21;7.80;90.90
46752;DHT22;32497;48.936;9.270;2022-12-29T20:06:24;7.70;90.70
46752;DHT22;32497;48.936;9.270;2022-12-29T20:11:25;7.70;90.20
46752;DHT22;32497;48.936;9.270;2022-12-29T20:16:26;7.70;90.60
46752;DHT22;32497;48.936;9.270;2022-12-29T20:21:28;7.60;91.60
46752;DHT22;32497;48.936;9.270;2022-12-29T20:26:29;7.60;91.60
46752;DHT22;32497;48.936;9.270;2022-12-29T20:31:32;7.60;91.20
46752;DHT22;32497;48.936;9.270;2022-12-29T20:36:37;7.70;91.40
46752;DHT22;32497;48.936;9.270;2022-12-29T20:41:39;7.60;91.20
46752;DHT22;32497;48.936;9.270;2022-12-29T20:46:40;7.50;91.40
46752;DHT22;32497;48.936;9.270;2022-12-29T20:51:42;7.60;91.80
46752;DHT22;32497;48.936;9.270;2022-12-29T20:56:45;7.50;91.30
46752;DHT22;32497;48.936;9.270;2022-12-29T21:01:46;7.50;91.10
46752;DHT22;32497;48.936;9.270;2022-12-29T21:06:48;7.50;91.00
46752;DHT22;32497;48.936;9.270;2022-12-29T21:11:50;7.40;91.20
46752;DHT22;32497;48.936;9.270;2022-12-29T21:16:51;7.30;91.20
46752;DHT22;32497;48.936;9.270;2022-12-29T21:21:53;7.30;91.30
46752;DHT22;32497;48.936;9.270;2022-12-29T21:26:54;7.20;91.30
46752;DHT22;32497;48.936;9.270;2022-12-29T21:31:55;7.20;90.90
46752;DHT22;32497;48.936;9.270;2022-12-29T21:36:58;7.20;90.50
46752;DHT22;32497;48.936;9.270;2022-12-29T21:41:59;7.20;90.20
46752;DHT22;32497;48.936;9.270;2022-12-29T21:47:00;7.20;90.10
46752;DHT22;32497;48.936;9.270;2022-12-29T21:52:02;7.20;90.70
46752;DHT22;32497;48.936;9.270;2022-12-29T21:57:04;7.20;90.60
46752;DHT22;32497;48.936;9.270;2022-12-29T22:02:14;7.20;91.10
46752;DHT22;32497;48.936;9.270;2022-12-29T22:07:18;7.20;91.30
46752;DHT22;32497;48.936;9.270;2022-12-29T22:12:19;7.20;90.60
46752;DHT22;32497;48.936;9.270;2022-12-29T22:17:20;7.20;90.60
46752;DHT22;32497;48.936;9.270;2022-12-29T22:22:22;7.20;90.70
46752;DHT22;32497;48.936;9.270;2022-12-29T22:27:23;7.20;89.80
46752;DHT22;32497;48.936;9.270;2022-12-29T22:32:24;7.20;89.50
46752;DHT22;32497;48.936;9.270;2022-12-29T22:37:27;7.20;88.20
46752;DHT22;32497;48.936;9.270;2022-12-29T22:42:28;7.20;87.70
46752;DHT22;32497;48.936;9.270;2022-12-29T22:47:29;7.20;88.90
46752;DHT22;32497;48.936;9.270;2022-12-29T22:52:31;7.20;88.80
46752;DHT22;32497;48.936;9.270;2022-12-29T22:57:32;7.20;89.60
46752;DHT22;32497;48.936;9.270;2022-12-29T23:02:34;7.10;89.40
46752;DHT22;32497;48.936;9.270;2022-12-29T23:07:36;7.10;88.10
46752;DHT22;32497;48.936;9.270;2022-12-29T23:12:37;7.20;89.30
46752;DHT22;32497;48.936;9.270;2022-12-29T23:17:38;7.10;87.80
46752;DHT22;32497;48.936;9.270;2022-12-29T23:22:41;7.10;88.70
46752;DHT22;32497;48.936;9.270;2022-12-29T23:27:42;7.00;88.30
46752;DHT22;32497;48.936;9.270;2022-12-29T23:32:43;7.10;87.90
46752;DHT22;32497;48.936;9.270;2022-12-29T23:37:45;7.10;88.30
46752;DHT22;32497;48.936;9.270;2022-12-29T23:42:46;7.10;89.20
46752;DHT22;32497;48.936;9.270;2022-12-29T23:47:47;7.00;89.40
46752;DHT22;32497;48.936;9.270;2022-12-29T23:52:50;7.00;89.40
46752;DHT22;32497;48.936;9.270;2022-12-29T23:57:51;7.00;89.40
